createdAt,value
2023-02-28T00:00:30.367Z,1.34
2023-02-28T00:01:30.765Z,1.26
2023-02-28T00:02:30.404Z,1.27
2023-02-28T00:03:30.417Z,1.26
2023-02-28T00:04:30.314Z,1.26
2023-02-28T00:05:35.351Z,1.23
2023-02-28T00:06:30.293Z,1.22
2023-02-28T00:07:30.307Z,1.26
2023-02-28T00:08:30.279Z,1.26
2023-02-28T00:09:30.262Z,1.20
2023-02-28T00:10:30.261Z,1.18
2023-02-28T00:11:30.685Z,1.22
2023-02-28T00:12:30.227Z,1.18
2023-02-28T00:13:30.249Z,1.18
2023-02-28T00:14:30.206Z,1.18
2023-02-28T00:15:30.208Z,1.12
2023-02-28T00:16:35.299Z,1.04
2023-02-28T00:17:30.172Z,1.02
2023-02-28T00:18:31.585Z,1.11
2023-02-28T00:19:30.194Z,1.02
2023-02-28T00:20:30.151Z,0.97
2023-02-28T00:21:30.604Z,1.02
2023-02-28T00:22:30.119Z,1.05
2023-02-28T00:23:30.129Z,0.97
2023-02-28T00:24:30.097Z,1.02
2023-02-28T00:25:30.164Z,0.86
2023-02-28T00:26:30.076Z,0.98
2023-02-28T00:27:35.104Z,0.97
2023-02-28T00:28:30.050Z,0.96
2023-02-28T00:29:30.037Z,1.00
2023-02-28T00:30:30.073Z,0.87
2023-02-28T00:31:30.443Z,0.91
2023-02-28T00:32:30.014Z,0.94
2023-02-28T00:33:29.997Z,0.94
2023-02-28T00:34:30.008Z,0.86
2023-02-28T00:35:30.037Z,0.93
2023-02-28T00:36:29.965Z,0.90
2023-02-28T00:37:29.977Z,0.90
2023-02-28T00:38:34.980Z,0.94
2023-02-28T00:39:29.932Z,0.88
2023-02-28T00:40:29.929Z,0.86
2023-02-28T00:41:30.234Z,0.83
2023-02-28T00:42:29.893Z,0.83
2023-02-28T00:43:29.909Z,0.86
2023-02-28T00:44:29.878Z,0.87
2023-02-28T00:45:29.859Z,0.88
2023-02-28T00:46:29.930Z,0.80
2023-02-28T00:47:29.835Z,0.73
2023-02-28T00:48:29.826Z,0.78
2023-02-28T00:49:34.876Z,0.69
2023-02-28T00:50:29.822Z,0.72
2023-02-28T00:51:30.266Z,0.70
2023-02-28T00:52:29.789Z,0.66
2023-02-28T00:53:29.772Z,0.66
2023-02-28T00:54:29.769Z,0.60
2023-02-28T00:55:29.783Z,0.66
2023-02-28T00:56:29.755Z,0.60
2023-02-28T00:57:29.725Z,0.66
2023-02-28T00:58:29.714Z,0.68
2023-02-28T00:59:29.704Z,0.61
2023-02-28T01:00:34.718Z,0.66
2023-02-28T01:01:30.062Z,0.60
2023-02-28T01:02:29.681Z,0.65
2023-02-28T01:03:29.668Z,0.68
2023-02-28T01:04:29.703Z,0.61
2023-02-28T01:05:29.660Z,0.68
2023-02-28T01:06:29.643Z,0.66
2023-02-28T01:07:29.656Z,0.69
2023-02-28T01:08:29.608Z,0.73
2023-02-28T01:09:29.593Z,0.69
2023-02-28T01:10:29.586Z,0.61
2023-02-28T01:11:34.602Z,0.61
2023-02-28T01:12:30.985Z,0.69
2023-02-28T01:13:29.572Z,0.61
2023-02-28T01:14:29.542Z,0.62
2023-02-28T01:15:29.578Z,0.65
2023-02-28T01:16:29.528Z,0.65
2023-02-28T01:17:29.508Z,0.65
2023-02-28T01:18:29.501Z,0.62
2023-02-28T01:19:29.497Z,0.58
2023-02-28T01:20:29.474Z,0.66
2023-02-28T01:21:29.931Z,0.61
2023-02-28T01:22:34.481Z,0.51
2023-02-28T01:23:29.441Z,0.66
2023-02-28T01:24:29.428Z,0.60
2023-02-28T01:25:29.492Z,0.60
2023-02-28T01:26:29.423Z,0.50
2023-02-28T01:27:29.404Z,0.55
2023-02-28T01:28:29.392Z,0.55
2023-02-28T01:29:29.371Z,0.61
2023-02-28T01:30:29.371Z,0.50
2023-02-28T01:31:29.813Z,0.57
2023-02-28T01:32:29.347Z,0.53
2023-02-28T01:33:34.359Z,0.58
2023-02-28T01:34:29.327Z,0.42
2023-02-28T01:35:29.314Z,0.47
2023-02-28T01:36:29.303Z,0.57
2023-02-28T01:37:29.314Z,0.41
2023-02-28T01:38:29.287Z,0.50
2023-02-28T01:39:29.258Z,0.57
2023-02-28T01:40:29.249Z,0.46
2023-02-28T01:41:29.520Z,0.42
2023-02-28T01:42:29.236Z,0.46
2023-02-28T01:43:29.243Z,0.42
2023-02-28T01:44:34.229Z,0.51
2023-02-28T01:45:29.199Z,0.50
2023-02-28T01:46:29.214Z,0.41
2023-02-28T01:47:29.189Z,0.35
2023-02-28T01:48:29.160Z,0.49
2023-02-28T01:49:29.171Z,0.41
2023-02-28T01:50:29.150Z,0.33
2023-02-28T01:51:29.387Z,0.50
2023-02-28T01:52:29.128Z,0.46
2023-02-28T01:53:29.133Z,0.42
2023-02-28T01:54:29.098Z,0.39
2023-02-28T01:55:34.132Z,0.41
2023-02-28T01:56:29.068Z,0.31
2023-02-28T01:57:29.066Z,0.31
2023-02-28T01:58:29.054Z,0.33
2023-02-28T01:59:29.037Z,0.31
2023-02-28T02:00:29.029Z,0.31
2023-02-28T02:01:29.519Z,0.33
2023-02-28T02:02:29.040Z,0.28
2023-02-28T02:03:28.991Z,0.31
2023-02-28T02:04:28.982Z,0.23
2023-02-28T02:05:28.967Z,0.24
2023-02-28T02:06:33.981Z,0.26
2023-02-28T02:07:28.989Z,0.23
2023-02-28T02:08:28.935Z,0.23
2023-02-28T02:09:28.950Z,0.29
2023-02-28T02:10:28.954Z,0.23
2023-02-28T02:11:29.127Z,0.29
2023-02-28T02:12:28.909Z,0.28
2023-02-28T02:13:28.892Z,0.29
2023-02-28T02:14:28.869Z,0.26
2023-02-28T02:15:28.857Z,0.24
2023-02-28T02:16:28.848Z,0.28
2023-02-28T02:17:33.870Z,0.26
2023-02-28T02:18:28.826Z,0.23
2023-02-28T02:19:28.838Z,0.31
2023-02-28T02:20:28.804Z,0.24
2023-02-28T02:21:29.033Z,0.21
2023-02-28T02:22:28.796Z,0.18
2023-02-28T02:23:28.782Z,0.17
2023-02-28T02:24:28.769Z,0.20
2023-02-28T02:25:28.809Z,0.20
2023-02-28T02:26:28.744Z,0.17
2023-02-28T02:27:28.724Z,0.13
2023-02-28T02:28:33.774Z,0.13
2023-02-28T02:29:28.701Z,0.04
2023-02-28T02:30:28.692Z,0.11
2023-02-28T02:31:29.145Z,0.11
2023-02-28T02:32:28.725Z,0.14
2023-02-28T02:33:28.667Z,0.14
2023-02-28T02:34:28.653Z,0.04
2023-02-28T02:35:28.791Z,0.02
2023-02-28T02:36:28.627Z,0.08
2023-02-28T02:37:28.637Z,0.04
2023-02-28T02:38:28.614Z,0.07
2023-02-28T02:39:33.613Z,0.10
2023-02-28T02:40:28.605Z,0.14
2023-02-28T02:41:28.846Z,0.02
2023-02-28T02:42:28.560Z,0.04
2023-02-28T02:43:28.574Z,0.08
2023-02-28T02:44:28.541Z,0.13
2023-02-28T02:45:28.527Z,0.02
2023-02-28T02:46:28.575Z,0.14
2023-02-28T02:47:28.502Z,0.08
2023-02-28T02:48:28.501Z,0.10
2023-02-28T02:49:28.497Z,0.04
2023-02-28T02:50:33.495Z,0.08
2023-02-28T02:51:28.919Z,0.02
2023-02-28T02:52:28.467Z,0.13
2023-02-28T02:53:28.489Z,0.02
2023-02-28T02:54:28.474Z,0.11
2023-02-28T02:55:28.497Z,-0.04
2023-02-28T02:56:28.409Z,-0.01
2023-02-28T02:57:28.416Z,-0.07
2023-02-28T02:58:28.394Z,-0.03
2023-02-28T02:59:28.370Z,-0.08
2023-02-28T03:00:28.359Z,-0.03
2023-02-28T03:01:33.406Z,-0.04
2023-02-28T03:02:28.339Z,-0.05
2023-02-28T03:03:28.356Z,-0.07
2023-02-28T03:04:28.314Z,-0.07
2023-02-28T03:05:28.302Z,-0.05
2023-02-28T03:06:28.298Z,-0.03
2023-02-28T03:07:28.303Z,-0.15
2023-02-28T03:08:28.279Z,0.02
2023-02-28T03:09:28.259Z,-0.05
2023-02-28T03:10:28.258Z,-0.04
2023-02-28T03:11:28.663Z,-0.03
2023-02-28T03:12:33.266Z,-0.03
2023-02-28T03:13:28.265Z,-0.03
2023-02-28T03:14:28.205Z,-0.04
2023-02-28T03:15:28.190Z,0.00
2023-02-28T03:16:28.257Z,-0.03
2023-02-28T03:17:28.172Z,-0.05
2023-02-28T03:18:28.186Z,-0.10
2023-02-28T03:19:28.209Z,-0.10
2023-02-28T03:20:28.142Z,-0.07
2023-02-28T03:21:28.414Z,-0.10
2023-02-28T03:22:28.118Z,-0.07
2023-02-28T03:23:33.192Z,-0.08
2023-02-28T03:24:28.109Z,-0.01
2023-02-28T03:25:28.102Z,-0.14
2023-02-28T03:26:28.074Z,-0.08
2023-02-28T03:27:28.071Z,-0.08
2023-02-28T03:28:28.103Z,-0.11
2023-02-28T03:31:46.833Z,-0.16
2023-02-28T03:32:46.694Z,-0.26
2023-02-28T03:33:46.683Z,-0.18
2023-02-28T03:34:46.684Z,-0.22
2023-02-28T03:35:46.750Z,-0.11
2023-02-28T03:36:46.714Z,-0.10
2023-02-28T03:37:46.670Z,-0.10
2023-02-28T03:38:46.626Z,-0.10
2023-02-28T03:39:46.627Z,-0.22
2023-02-28T03:40:46.635Z,-0.16
2023-02-28T03:41:46.597Z,-0.10
2023-02-28T03:42:51.607Z,-0.08
2023-02-28T03:43:46.597Z,-0.16
2023-02-28T03:44:46.591Z,-0.11
2023-02-28T03:45:46.604Z,-0.10
2023-02-28T03:46:46.540Z,-0.16
2023-02-28T03:47:46.528Z,-0.10
2023-02-28T03:48:46.529Z,-0.15
2023-02-28T03:49:46.515Z,-0.14
2023-02-28T03:50:46.500Z,-0.11
2023-02-28T03:51:46.512Z,-0.21
2023-02-28T03:52:46.474Z,-0.22
2023-02-28T03:53:51.486Z,-0.19
2023-02-28T03:54:46.482Z,-0.16
2023-02-28T03:55:46.462Z,-0.25
2023-02-28T03:56:46.427Z,-0.21
2023-02-28T03:57:46.454Z,-0.26
2023-02-28T03:58:46.412Z,-0.26
2023-02-28T03:59:46.430Z,-0.29
2023-02-28T04:00:46.385Z,-0.22
2023-02-28T04:01:46.496Z,-0.23
2023-02-28T04:02:46.377Z,-0.28
2023-02-28T04:03:46.387Z,-0.29
2023-02-28T04:04:51.430Z,-0.19
2023-02-28T04:05:46.329Z,-0.22
2023-02-28T04:06:46.329Z,-0.21
2023-02-28T04:07:46.308Z,-0.26
2023-02-28T04:08:46.302Z,-0.22
2023-02-28T04:09:46.332Z,-0.19
2023-02-28T04:10:46.278Z,-0.18
2023-02-28T04:11:46.268Z,-0.19
2023-02-28T04:12:46.253Z,-0.19
2023-02-28T04:13:47.590Z,-0.25
2023-02-28T04:14:46.256Z,-0.23
2023-02-28T04:15:51.347Z,-0.29
2023-02-28T04:16:46.304Z,-0.25
2023-02-28T04:17:46.217Z,-0.37
2023-02-28T04:18:46.187Z,-0.36
2023-02-28T04:19:46.193Z,-0.34
2023-02-28T04:20:46.173Z,-0.29
2023-02-28T04:21:46.154Z,-0.31
2023-02-28T04:22:46.171Z,-0.25
2023-02-28T04:23:46.133Z,-0.29
2023-02-28T04:24:46.121Z,-0.28
2023-02-28T04:25:46.127Z,-0.42
2023-02-28T04:26:51.118Z,-0.39
2023-02-28T04:27:46.093Z,-0.36
2023-02-28T04:28:46.096Z,-0.40
2023-02-28T04:29:46.074Z,-0.37
2023-02-28T04:30:46.072Z,-0.33
2023-02-28T04:31:46.210Z,-0.39
2023-02-28T04:32:46.033Z,-0.37
2023-02-28T04:33:46.026Z,-0.22
2023-02-28T04:34:46.029Z,-0.26
2023-02-28T04:35:46.103Z,-0.37
2023-02-28T04:36:45.992Z,-0.29
2023-02-28T04:37:51.002Z,-0.33
2023-02-28T04:38:45.965Z,-0.40
2023-02-28T04:39:45.978Z,-0.40
2023-02-28T04:40:45.977Z,-0.39
2023-02-28T04:41:45.934Z,-0.43
2023-02-28T04:42:45.925Z,-0.33
2023-02-28T04:43:45.912Z,-0.40
2023-02-28T04:44:45.906Z,-0.39
2023-02-28T04:45:45.924Z,-0.37
2023-02-28T04:46:45.894Z,-0.37
2023-02-28T04:47:45.912Z,-0.36
2023-02-28T04:48:50.878Z,-0.36
2023-02-28T04:49:45.846Z,-0.37
2023-02-28T04:50:45.849Z,-0.37
2023-02-28T04:51:45.824Z,-0.36
2023-02-28T04:52:45.862Z,-0.42
2023-02-28T04:53:45.811Z,-0.33
2023-02-28T04:54:45.789Z,-0.46
2023-02-28T04:55:45.812Z,-0.42
2023-02-28T04:56:45.773Z,-0.34
2023-02-28T04:57:45.760Z,-0.36
2023-02-28T04:58:45.765Z,-0.40
2023-02-28T04:59:50.768Z,-0.42
2023-02-28T05:00:45.720Z,-0.40
2023-02-28T05:01:45.718Z,-0.36
2023-02-28T05:02:45.695Z,-0.33
2023-02-28T05:03:45.712Z,-0.37
2023-02-28T05:04:45.737Z,-0.28
2023-02-28T05:05:45.669Z,-0.33
2023-02-28T05:06:45.678Z,-0.34
2023-02-28T05:07:45.642Z,-0.39
2023-02-28T05:08:45.628Z,-0.31
2023-02-28T05:09:45.620Z,-0.37
2023-02-28T05:10:50.687Z,-0.34
2023-02-28T05:11:45.609Z,-0.39
2023-02-28T05:12:45.585Z,-0.34
2023-02-28T05:13:45.579Z,-0.42
2023-02-28T05:14:45.568Z,-0.36
2023-02-28T05:15:45.556Z,-0.33
2023-02-28T05:16:45.590Z,-0.39
2023-02-28T05:17:45.537Z,-0.28
2023-02-28T05:18:45.558Z,-0.34
2023-02-28T05:19:45.535Z,-0.34
2023-02-28T05:20:45.498Z,-0.25
2023-02-28T05:21:50.523Z,-0.26
2023-02-28T05:22:45.498Z,-0.21
2023-02-28T05:23:46.826Z,-0.21
2023-02-28T05:24:45.458Z,-0.21
2023-02-28T05:25:45.443Z,-0.28
2023-02-28T05:26:45.440Z,-0.28
2023-02-28T05:27:45.422Z,-0.28
2023-02-28T05:28:45.455Z,-0.21
2023-02-28T05:29:45.410Z,-0.21
2023-02-28T05:30:45.390Z,-0.21
2023-02-28T05:31:45.525Z,-0.21
2023-02-28T05:32:50.394Z,-0.21
2023-02-28T05:33:45.364Z,-0.14
2023-02-28T05:34:45.389Z,-0.10
2023-02-28T05:35:45.409Z,-0.10
2023-02-28T05:36:45.324Z,-0.14
2023-02-28T05:37:45.321Z,-0.16
2023-02-28T05:38:45.302Z,-0.14
2023-02-28T05:39:45.299Z,-0.07
2023-02-28T05:40:45.301Z,-0.03
2023-02-28T05:41:45.282Z,-0.07
2023-02-28T05:42:45.275Z,-0.01
2023-02-28T05:43:50.271Z,-0.07
2023-02-28T05:44:45.231Z,-0.07
2023-02-28T05:45:45.250Z,0.00
2023-02-28T05:46:45.241Z,-0.03
2023-02-28T05:47:45.212Z,0.10
2023-02-28T05:48:45.220Z,-0.04
2023-02-28T05:49:45.180Z,0.02
2023-02-28T05:50:45.167Z,-0.08
2023-02-28T05:51:45.176Z,-0.07
2023-02-28T05:52:45.215Z,-0.05
2023-02-28T05:53:45.169Z,-0.15
2023-02-28T05:54:50.164Z,-0.15
2023-02-28T05:55:45.116Z,-0.19
2023-02-28T05:56:45.142Z,-0.07
2023-02-28T05:57:45.104Z,-0.03
2023-02-28T05:58:45.111Z,-0.03
2023-02-28T05:59:45.073Z,-0.01
2023-02-28T06:00:45.060Z,-0.03
2023-02-28T06:01:45.053Z,-0.07
2023-02-28T06:02:45.060Z,-0.03
2023-02-28T06:03:45.084Z,-0.07
2023-02-28T06:04:45.067Z,-0.04
2023-02-28T06:05:50.035Z,-0.05
2023-02-28T06:06:44.996Z,-0.04
2023-02-28T06:07:45.006Z,-0.01
2023-02-28T06:08:44.992Z,-0.01
2023-02-28T06:09:44.972Z,-0.08
2023-02-28T06:10:45.003Z,-0.04
2023-02-28T06:11:44.945Z,0.04
2023-02-28T06:12:44.934Z,-0.08
2023-02-28T06:13:44.932Z,-0.04
2023-02-28T06:14:44.909Z,0.00
2023-02-28T06:15:44.917Z,-0.04
2023-02-28T06:16:50.073Z,0.08
2023-02-28T06:17:44.880Z,0.13
2023-02-28T06:18:44.880Z,0.04
2023-02-28T06:19:44.861Z,0.04
2023-02-28T06:20:44.851Z,0.20
2023-02-28T06:21:44.847Z,0.14
2023-02-28T06:22:44.855Z,0.15
2023-02-28T06:23:44.847Z,0.15
2023-02-28T06:24:44.812Z,0.03
2023-02-28T06:25:44.821Z,0.08
2023-02-28T06:26:44.779Z,0.07
2023-02-28T06:27:49.794Z,0.08
2023-02-28T06:28:44.817Z,-0.03
2023-02-28T06:29:44.761Z,0.11
2023-02-28T06:30:46.490Z,0.03
2023-02-28T06:31:44.839Z,0.04
2023-02-28T06:32:44.719Z,0.11
2023-02-28T06:33:44.716Z,0.20
2023-02-28T06:34:44.745Z,0.15
2023-02-28T06:35:44.689Z,0.20
2023-02-28T06:36:44.672Z,0.18
2023-02-28T06:37:44.663Z,0.20
2023-02-28T06:38:49.703Z,0.14
2023-02-28T06:39:44.645Z,0.04
2023-02-28T06:40:44.654Z,0.08
2023-02-28T06:41:54.986Z,0.10
2023-02-28T06:42:44.610Z,0.14
2023-02-28T06:43:44.606Z,0.17
2023-02-28T06:44:44.596Z,0.14
2023-02-28T06:45:44.580Z,0.17
2023-02-28T06:46:44.589Z,0.11
2023-02-28T06:47:44.556Z,0.28
2023-02-28T06:48:44.551Z,0.18
2023-02-28T06:49:49.553Z,0.21
2023-02-28T06:50:44.519Z,0.33
2023-02-28T06:51:44.510Z,0.28
2023-02-28T06:52:44.548Z,0.28
2023-02-28T06:53:44.497Z,0.21
2023-02-28T06:54:44.504Z,0.31
2023-02-28T06:55:44.474Z,0.26
2023-02-28T06:56:44.458Z,0.21
2023-02-28T06:57:44.446Z,0.28
2023-02-28T06:58:44.501Z,0.23
2023-02-28T06:59:44.423Z,0.51
2023-02-28T07:00:49.432Z,0.69
2023-02-28T07:01:44.482Z,0.66
2023-02-28T07:02:44.394Z,0.57
2023-02-28T07:03:44.392Z,0.50
2023-02-28T07:04:44.432Z,0.46
2023-02-28T07:05:44.355Z,0.47
2023-02-28T07:06:44.341Z,0.29
2023-02-28T07:07:44.334Z,0.36
2023-02-28T07:08:44.352Z,0.38
2023-02-28T07:09:44.316Z,0.39
2023-02-28T07:10:44.435Z,0.39
2023-02-28T07:11:49.322Z,0.39
2023-02-28T07:12:44.326Z,0.29
2023-02-28T07:13:44.285Z,0.51
2023-02-28T07:14:44.254Z,0.53
2023-02-28T07:15:44.439Z,0.55
2023-02-28T07:16:44.230Z,0.60
2023-02-28T07:17:44.224Z,0.57
2023-02-28T07:18:44.223Z,0.66
2023-02-28T07:19:44.211Z,0.75
2023-02-28T07:20:44.187Z,0.72
2023-02-28T07:21:44.201Z,0.79
2023-02-28T07:22:49.187Z,0.80
2023-02-28T07:23:44.187Z,0.75
2023-02-28T07:24:44.152Z,0.79
2023-02-28T07:25:44.131Z,0.83
2023-02-28T07:26:44.143Z,0.83
2023-02-28T07:27:44.119Z,0.79
2023-02-28T07:28:44.098Z,0.87
2023-02-28T07:29:44.140Z,0.91
2023-02-28T07:30:44.083Z,0.86
2023-02-28T07:31:44.101Z,0.87
2023-02-28T07:32:45.310Z,0.87
2023-02-28T07:33:49.071Z,0.88
2023-02-28T07:34:44.045Z,0.87
2023-02-28T07:35:44.075Z,1.02
2023-02-28T07:36:44.031Z,0.97
2023-02-28T07:37:44.019Z,1.06
2023-02-28T07:38:45.194Z,1.02
2023-02-28T07:39:43.994Z,1.22
2023-02-28T07:40:43.977Z,1.18
2023-02-28T07:41:43.978Z,1.16
2023-02-28T07:42:43.980Z,1.23
2023-02-28T07:43:43.949Z,1.32
2023-02-28T07:44:48.961Z,1.29
2023-02-28T07:45:43.922Z,1.36
2023-02-28T07:46:43.967Z,1.32
2023-02-28T07:47:43.913Z,1.36
2023-02-28T07:48:43.912Z,1.36
2023-02-28T07:49:43.910Z,1.33
2023-02-28T07:50:43.871Z,1.41
2023-02-28T07:51:43.854Z,1.41
2023-02-28T07:52:43.858Z,1.41
2023-02-28T07:53:43.856Z,1.52
2023-02-28T07:54:43.833Z,1.54
2023-02-28T07:55:48.833Z,1.50
2023-02-28T07:56:43.806Z,1.55
2023-02-28T07:57:43.791Z,1.70
2023-02-28T07:58:43.803Z,1.83
2023-02-28T07:59:46.043Z,1.84
2023-02-28T08:00:43.794Z,1.77
2023-02-28T08:01:43.792Z,1.88
2023-02-28T08:02:43.739Z,1.95
2023-02-28T08:03:43.728Z,1.91
2023-02-28T08:04:43.778Z,2.05
2023-02-28T08:05:43.732Z,2.16
2023-02-28T08:06:48.717Z,2.10
2023-02-28T08:07:43.688Z,2.20
2023-02-28T08:08:43.673Z,2.10
2023-02-28T08:09:43.678Z,2.06
2023-02-28T08:10:43.650Z,2.02
2023-02-28T08:11:43.668Z,2.03
2023-02-28T08:12:43.628Z,2.02
2023-02-28T08:13:43.614Z,2.09
2023-02-28T08:14:43.644Z,2.17
2023-02-28T08:15:43.598Z,2.21
2023-02-28T08:16:43.588Z,2.17
2023-02-28T08:17:48.617Z,2.31
2023-02-28T08:18:43.568Z,2.18
2023-02-28T08:19:43.560Z,2.18
2023-02-28T08:20:43.540Z,2.18
2023-02-28T08:21:43.524Z,2.30
2023-02-28T08:22:45.861Z,2.27
2023-02-28T08:23:43.530Z,2.36
2023-02-28T08:24:43.511Z,2.35
2023-02-28T08:25:43.484Z,2.46
2023-02-28T08:26:43.474Z,2.48
2023-02-28T08:27:43.470Z,2.41
2023-02-28T08:28:48.473Z,2.45
2023-02-28T08:29:43.459Z,2.41
2023-02-28T08:30:43.460Z,2.39
2023-02-28T08:31:43.438Z,2.21
2023-02-28T08:32:43.485Z,2.20
2023-02-28T08:33:43.391Z,2.24
2023-02-28T08:34:43.386Z,2.25
2023-02-28T08:35:43.425Z,2.36
2023-02-28T08:36:43.415Z,2.77
2023-02-28T08:37:43.374Z,3.23
2023-02-28T08:38:43.339Z,3.69
2023-02-28T08:39:48.347Z,4.34
2023-02-28T08:40:43.326Z,4.44
2023-02-28T08:41:43.342Z,4.40
2023-02-28T08:42:43.300Z,4.51
2023-02-28T08:43:43.287Z,4.59
2023-02-28T08:44:43.278Z,4.66
2023-02-28T08:45:43.301Z,4.75
2023-02-28T08:46:43.275Z,4.75
2023-02-28T08:47:43.256Z,4.82
2023-02-28T08:48:43.225Z,4.94
2023-02-28T08:49:43.216Z,4.91
2023-02-28T08:50:55.753Z,5.06
2023-02-28T08:51:43.193Z,5.39
2023-02-28T08:52:43.179Z,5.58
2023-02-28T08:53:43.201Z,5.42
2023-02-28T08:54:43.156Z,5.31
2023-02-28T08:55:43.154Z,5.00
2023-02-28T08:56:43.150Z,4.54
2023-02-28T08:57:43.122Z,4.24
2023-02-28T08:58:43.117Z,4.04
2023-02-28T08:59:43.119Z,4.11
2023-02-28T09:00:43.150Z,4.55
2023-02-28T09:01:48.123Z,5.02
2023-02-28T09:02:43.069Z,5.28
2023-02-28T09:03:43.079Z,5.27
2023-02-28T09:04:43.054Z,5.72
2023-02-28T09:05:43.062Z,5.60
2023-02-28T09:06:43.070Z,6.00
2023-02-28T09:07:43.010Z,5.93
2023-02-28T09:08:43.001Z,6.34
2023-02-28T09:09:42.989Z,6.06
2023-02-28T09:10:42.995Z,6.18
2023-02-28T09:11:42.983Z,6.03
2023-02-28T09:12:47.990Z,6.22
2023-02-28T09:13:42.944Z,6.08
2023-02-28T09:14:42.933Z,6.33
2023-02-28T09:15:42.936Z,6.17
2023-02-28T09:16:42.944Z,6.25
2023-02-28T09:17:45.681Z,6.17
2023-02-28T09:18:42.894Z,5.36
2023-02-28T09:19:42.875Z,5.03
2023-02-28T09:20:42.874Z,4.89
2023-02-28T09:21:42.859Z,4.82
2023-02-28T09:22:42.844Z,4.84
2023-02-28T09:23:47.889Z,4.97
2023-02-28T09:24:42.895Z,5.17
2023-02-28T09:25:42.830Z,5.03
2023-02-28T09:26:51.622Z,5.03
2023-02-28T09:27:43.197Z,4.92
2023-02-28T09:28:42.779Z,5.20
2023-02-28T09:29:42.789Z,5.03
2023-02-28T09:30:42.805Z,4.84
2023-02-28T09:31:42.781Z,5.07
2023-02-28T09:32:42.747Z,5.42
2023-02-28T09:33:42.748Z,5.48
2023-02-28T09:34:47.738Z,5.85
2023-02-28T09:35:42.726Z,5.94
2023-02-28T09:36:45.857Z,5.83
2023-02-28T09:37:42.681Z,5.58
2023-02-28T09:38:42.674Z,5.56
2023-02-28T09:39:42.710Z,5.42
2023-02-28T09:40:42.675Z,5.40
2023-02-28T09:41:42.660Z,5.45
2023-02-28T09:42:42.627Z,5.61
2023-02-28T09:43:42.617Z,5.65
2023-02-28T09:44:43.944Z,5.79
2023-02-28T09:45:47.683Z,6.22
2023-02-28T09:46:42.583Z,6.08
2023-02-28T09:47:42.658Z,6.09
2023-02-28T09:48:42.566Z,6.33
2023-02-28T09:49:42.574Z,6.38
2023-02-28T09:50:42.557Z,6.66
2023-02-28T09:51:42.527Z,6.74
2023-02-28T09:52:42.517Z,6.99
2023-02-28T09:53:44.029Z,6.99
2023-02-28T09:54:42.497Z,7.09
2023-02-28T09:55:47.098Z,7.53
2023-02-28T09:56:47.533Z,7.39
2023-02-28T09:57:42.475Z,7.40
2023-02-28T09:58:42.448Z,6.99
2023-02-28T09:59:42.455Z,6.99
2023-02-28T10:00:42.430Z,6.76
2023-02-28T10:01:42.470Z,6.46
2023-02-28T10:02:42.407Z,6.46
2023-02-28T10:03:42.395Z,6.51
2023-02-28T10:04:42.434Z,6.74
2023-02-28T10:05:44.165Z,6.70
2023-02-28T10:06:42.376Z,6.49
2023-02-28T10:07:47.376Z,6.04
2023-02-28T10:08:42.405Z,6.12
2023-02-28T10:09:42.327Z,6.30
2023-02-28T10:10:42.332Z,6.27
2023-02-28T10:11:42.343Z,6.38
2023-02-28T10:12:42.294Z,6.56
2023-02-28T10:13:42.293Z,6.46
2023-02-28T10:14:42.271Z,6.43
2023-02-28T10:15:42.322Z,6.36
2023-02-28T10:16:42.260Z,6.01
2023-02-28T10:17:55.009Z,5.79
2023-02-28T10:18:47.260Z,5.93
2023-02-28T10:19:42.217Z,6.19
2023-02-28T10:20:42.207Z,6.22
2023-02-28T10:21:42.222Z,6.25
2023-02-28T10:22:42.185Z,6.31
2023-02-28T10:23:42.183Z,6.49
2023-02-28T10:24:42.158Z,7.10
2023-02-28T10:25:42.145Z,7.17
2023-02-28T10:26:42.160Z,7.02
2023-02-28T10:27:42.124Z,6.98
2023-02-28T10:28:42.126Z,6.69
2023-02-28T10:29:47.149Z,6.34
2023-02-28T10:30:42.114Z,6.30
2023-02-28T10:31:42.084Z,6.27
2023-02-28T10:32:42.083Z,6.11
2023-02-28T10:33:42.059Z,5.94
2023-02-28T10:34:42.055Z,5.74
2023-02-28T10:35:42.054Z,5.60
2023-02-28T10:36:42.032Z,5.48
2023-02-28T10:37:42.045Z,5.40
2023-02-28T10:38:42.015Z,5.61
2023-02-28T10:39:41.993Z,5.40
2023-02-28T10:40:47.002Z,5.24
2023-02-28T10:41:41.970Z,5.43
2023-02-28T10:42:41.968Z,5.33
2023-02-28T10:43:41.951Z,5.31
2023-02-28T10:44:41.943Z,5.42
2023-02-28T10:45:41.926Z,5.43
2023-02-28T10:46:42.012Z,5.48
2023-02-28T10:47:41.931Z,5.30
2023-02-28T10:48:41.901Z,5.22
2023-02-28T10:49:41.882Z,5.13
2023-02-28T10:50:41.872Z,5.02
2023-02-28T10:51:46.879Z,5.02
2023-02-28T10:52:41.856Z,5.02
2023-02-28T10:53:59.549Z,5.33
2023-02-28T10:54:42.832Z,5.60
2023-02-28T10:55:41.816Z,5.74
2023-02-28T10:56:41.900Z,6.09
2023-02-28T10:57:41.804Z,6.40
2023-02-28T10:58:41.779Z,6.43
2023-02-28T10:59:41.793Z,6.04
2023-02-28T11:00:41.762Z,6.27
2023-02-28T11:01:41.823Z,6.55
2023-02-28T11:02:46.771Z,6.55
2023-02-28T11:03:41.728Z,6.44
2023-02-28T11:04:41.795Z,6.33
2023-02-28T11:05:41.713Z,6.28
2023-02-28T11:06:41.693Z,6.43
2023-02-28T11:07:52.994Z,6.44
2023-02-28T11:08:42.666Z,6.11
2023-02-28T11:09:41.680Z,5.78
2023-02-28T11:10:41.647Z,5.82
2023-02-28T11:11:41.664Z,6.00
2023-02-28T11:12:50.854Z,6.06
2023-02-28T11:13:46.630Z,6.06
2023-02-28T11:14:41.597Z,5.89
2023-02-28T11:15:41.661Z,5.86
2023-02-28T11:16:41.582Z,5.89
2023-02-28T11:17:41.591Z,5.90
2023-02-28T11:18:41.553Z,6.43
2023-02-28T11:19:41.542Z,6.79
2023-02-28T11:20:41.528Z,6.71
2023-02-28T11:21:41.517Z,6.79
2023-02-28T11:22:41.519Z,7.17
2023-02-28T11:23:41.536Z,7.30
2023-02-28T11:24:46.530Z,7.10
2023-02-28T11:25:41.481Z,6.98
2023-02-28T11:26:41.460Z,6.76
2023-02-28T11:27:41.459Z,6.76
2023-02-28T11:28:41.445Z,7.24
2023-02-28T11:29:41.450Z,7.61
2023-02-28T11:30:41.423Z,7.63
2023-02-28T11:31:41.504Z,7.61
2023-02-28T11:32:41.653Z,6.88
2023-02-28T11:33:41.383Z,6.87
2023-02-28T11:34:41.386Z,7.10
2023-02-28T11:35:46.409Z,7.24
2023-02-28T11:36:41.366Z,7.13
2023-02-28T11:37:41.336Z,6.87
2023-02-28T11:38:41.339Z,6.61
2023-02-28T11:39:41.314Z,6.43
2023-02-28T11:40:41.351Z,6.64
2023-02-28T11:41:41.570Z,7.02
2023-02-28T11:42:41.293Z,7.80
2023-02-28T11:43:41.288Z,8.23
2023-02-28T11:44:41.264Z,8.47
2023-02-28T11:45:41.249Z,8.50
2023-02-28T11:46:46.340Z,8.53
2023-02-28T11:47:41.228Z,8.81
2023-02-28T11:48:41.232Z,8.55
2023-02-28T11:49:41.199Z,8.40
2023-02-28T11:50:41.192Z,8.37
2023-02-28T11:51:41.187Z,8.07
2023-02-28T11:52:41.189Z,7.93
2023-02-28T11:53:41.167Z,7.92
2023-02-28T11:54:41.157Z,7.53
2023-02-28T11:55:41.140Z,7.31
2023-02-28T11:56:41.251Z,7.16
2023-02-28T11:57:46.141Z,7.31
2023-02-28T11:58:41.158Z,7.25
2023-02-28T11:59:41.094Z,6.80
2023-02-28T12:00:41.095Z,6.70
2023-02-28T12:01:41.073Z,6.85
2023-02-28T12:02:41.157Z,6.76
2023-02-28T12:03:41.054Z,6.71
2023-02-28T12:04:41.099Z,6.74
2023-02-28T12:05:41.036Z,6.85
2023-02-28T12:06:41.025Z,6.80
2023-02-28T12:07:41.011Z,6.99
2023-02-28T12:08:46.022Z,7.24
2023-02-28T12:09:41.006Z,7.53
2023-02-28T12:10:40.994Z,7.74
2023-02-28T12:11:40.968Z,7.25
2023-02-28T12:12:40.984Z,6.94
2023-02-28T12:13:40.950Z,6.74
2023-02-28T12:14:40.944Z,6.58
2023-02-28T12:15:40.924Z,6.70
2023-02-28T12:16:41.018Z,6.73
2023-02-28T12:17:40.902Z,6.79
2023-02-28T12:18:40.893Z,6.77
2023-02-28T12:19:45.948Z,6.79
2023-02-28T12:20:40.867Z,6.97
2023-02-28T12:21:40.871Z,6.71
2023-02-28T12:22:40.859Z,6.79
2023-02-28T12:23:40.840Z,6.87
2023-02-28T12:24:40.838Z,7.12
2023-02-28T12:25:40.817Z,7.30
2023-02-28T12:26:40.820Z,7.31
2023-02-28T12:27:40.796Z,7.30
2023-02-28T12:28:40.805Z,7.09
2023-02-28T12:29:40.785Z,7.07
2023-02-28T12:30:45.778Z,7.09
2023-02-28T12:31:40.755Z,7.39
2023-02-28T12:32:40.775Z,7.40
2023-02-28T12:33:40.722Z,7.72
2023-02-28T12:34:40.753Z,7.60
2023-02-28T12:35:40.738Z,7.39
2023-02-28T12:36:40.686Z,7.58
2023-02-28T12:37:40.677Z,8.05
2023-02-28T12:38:40.694Z,8.20
2023-02-28T12:39:49.790Z,8.45
2023-02-28T12:40:40.663Z,8.34
2023-02-28T12:41:45.655Z,7.98
2023-02-28T12:42:40.620Z,8.37
2023-02-28T12:43:40.612Z,8.52
2023-02-28T12:44:40.630Z,8.40
2023-02-28T12:45:40.749Z,8.83
2023-02-28T12:46:40.709Z,8.66
2023-02-28T12:47:40.566Z,8.65
2023-02-28T12:48:40.556Z,8.80
2023-02-28T12:49:40.551Z,8.11
2023-02-28T12:50:40.546Z,7.83
2023-02-28T12:51:40.517Z,8.04
2023-02-28T12:52:45.554Z,8.22
2023-02-28T12:53:40.493Z,8.19
2023-02-28T12:54:40.491Z,8.55
2023-02-28T12:55:40.474Z,8.44
2023-02-28T12:56:40.462Z,8.07
2023-02-28T12:57:40.454Z,7.87
2023-02-28T12:58:40.473Z,8.12
2023-02-28T12:59:40.467Z,8.23
2023-02-28T13:00:40.439Z,8.34
2023-02-28T13:01:40.497Z,8.43
2023-02-28T13:02:40.422Z,8.66
2023-02-28T13:03:45.403Z,8.04
2023-02-28T13:04:40.404Z,8.29
2023-02-28T13:05:40.359Z,8.43
2023-02-28T13:06:40.345Z,8.00
2023-02-28T13:07:40.345Z,8.30
2023-02-28T13:08:40.325Z,8.08
2023-02-28T13:09:40.311Z,8.04
2023-02-28T13:10:40.340Z,8.33
2023-02-28T13:11:40.293Z,8.89
2023-02-28T13:12:40.282Z,9.46
2023-02-28T13:13:40.269Z,9.71
2023-02-28T13:14:45.292Z,9.84